Terminal Aerodrome Forecast
Issued by NWS

Home | Current Version | Previous Version | Text Only | Print | Product List | Glossary On
Versions: 1 2 3 4 5 6 7 8 9 10 11 12 13 14 15 16 17 18 19 20 21
000
FTUS41 KBGM 221100
TAFITH
TAF
KITH 221136Z 2212/2312 36008KT 6SM BR OVC004
      TEMPO 2214/2216 3SM BR SCT004 OVC012
     FM221600 35010KT P6SM SCT007 OVC015
     FM230100 35012KT 4SM -SHRA BR OVC006=

USA.gov is the U.S. government's official web portal to all federal, state and local government web resources and services.